sensor_id;sensor_type;location;lat;lon;timestamp;P1;durP1;ratioP1;P2;durP2;ratioP2
43670;SDS011;29267;50.906;7.248;2023-03-01T00:01:24;10.83;;;5.23;;
43670;SDS011;29267;50.906;7.248;2023-03-01T00:03:52;10.33;;;5.77;;
43670;SDS011;29267;50.906;7.248;2023-03-01T00:06:18;10.93;;;5.40;;
43670;SDS011;29267;50.906;7.248;2023-03-01T00:08:45;12.67;;;5.17;;
43670;SDS011;29267;50.906;7.248;2023-03-01T00:13:50;9.73;;;3.90;;
43670;SDS011;29267;50.906;7.248;2023-03-01T00:16:27;11.67;;;5.63;;
43670;SDS011;29267;50.906;7.248;2023-03-01T00:18:55;17.40;;;5.97;;
43670;SDS011;29267;50.906;7.248;2023-03-01T00:21:22;11.67;;;5.77;;
43670;SDS011;29267;50.906;7.248;2023-03-01T00:23:48;14.00;;;6.00;;
43670;SDS011;29267;50.906;7.248;2023-03-01T00:26:14;32.20;;;12.60;;
43670;SDS011;29267;50.906;7.248;2023-03-01T00:28:41;33.77;;;11.57;;
43670;SDS011;29267;50.906;7.248;2023-03-01T00:31:17;73.73;;;23.10;;
43670;SDS011;29267;50.906;7.248;2023-03-01T00:33:45;26.47;;;11.50;;
43670;SDS011;29267;50.906;7.248;2023-03-01T00:36:11;27.60;;;11.00;;
43670;SDS011;29267;50.906;7.248;2023-03-01T00:38:39;40.97;;;13.47;;
43670;SDS011;29267;50.906;7.248;2023-03-01T00:41:10;36.80;;;14.30;;
43670;SDS011;29267;50.906;7.248;2023-03-01T00:43:37;46.23;;;17.27;;
43670;SDS011;29267;50.906;7.248;2023-03-01T00:46:04;13.73;;;7.43;;
43670;SDS011;29267;50.906;7.248;2023-03-01T00:48:31;19.60;;;4.87;;
43670;SDS011;29267;50.906;7.248;2023-03-01T00:51:03;13.77;;;5.87;;
43670;SDS011;29267;50.906;7.248;2023-03-01T00:53:30;12.37;;;5.67;;
43670;SDS011;29267;50.906;7.248;2023-03-01T00:55:57;43.53;;;13.47;;
43670;SDS011;29267;50.906;7.248;2023-03-01T00:58:23;33.70;;;12.17;;
43670;SDS011;29267;50.906;7.248;2023-03-01T01:00:48;11.83;;;5.90;;
43670;SDS011;29267;50.906;7.248;2023-03-01T01:03:14;14.57;;;6.97;;
43670;SDS011;29267;50.906;7.248;2023-03-01T01:05:39;22.43;;;9.70;;
43670;SDS011;29267;50.906;7.248;2023-03-01T01:08:05;11.23;;;6.10;;
43670;SDS011;29267;50.906;7.248;2023-03-01T01:10:33;26.97;;;10.60;;
43670;SDS011;29267;50.906;7.248;2023-03-01T01:12:59;19.73;;;9.13;;
43670;SDS011;29267;50.906;7.248;2023-03-01T01:15:24;22.50;;;8.80;;
43670;SDS011;29267;50.906;7.248;2023-03-01T01:17:54;11.13;;;6.23;;
43670;SDS011;29267;50.906;7.248;2023-03-01T01:20:20;17.90;;;6.03;;
43670;SDS011;29267;50.906;7.248;2023-03-01T01:22:45;15.87;;;6.67;;
43670;SDS011;29267;50.906;7.248;2023-03-01T01:25:11;36.50;;;15.17;;
43670;SDS011;29267;50.906;7.248;2023-03-01T01:27:37;34.37;;;11.63;;
43670;SDS011;29267;50.906;7.248;2023-03-01T01:30:02;22.83;;;9.70;;
43670;SDS011;29267;50.906;7.248;2023-03-01T01:32:29;20.63;;;9.00;;
43670;SDS011;29267;50.906;7.248;2023-03-01T01:34:54;16.63;;;9.07;;
43670;SDS011;29267;50.906;7.248;2023-03-01T01:37:20;11.57;;;5.80;;
43670;SDS011;29267;50.906;7.248;2023-03-01T01:39:46;15.87;;;6.77;;
43670;SDS011;29267;50.906;7.248;2023-03-01T01:42:15;10.90;;;5.47;;
43670;SDS011;29267;50.906;7.248;2023-03-01T01:44:44;12.20;;;6.17;;
43670;SDS011;29267;50.906;7.248;2023-03-01T01:47:18;10.40;;;5.80;;
43670;SDS011;29267;50.906;7.248;2023-03-01T01:49:55;13.17;;;6.30;;
43670;SDS011;29267;50.906;7.248;2023-03-01T01:52:23;8.73;;;5.23;;
43670;SDS011;29267;50.906;7.248;2023-03-01T01:54:51;12.17;;;5.33;;
43670;SDS011;29267;50.906;7.248;2023-03-01T01:57:24;12.60;;;5.83;;
43670;SDS011;29267;50.906;7.248;2023-03-01T01:59:58;13.30;;;5.77;;
43670;SDS011;29267;50.906;7.248;2023-03-01T02:02:27;12.47;;;5.30;;
43670;SDS011;29267;50.906;7.248;2023-03-01T02:04:55;10.23;;;5.67;;
43670;SDS011;29267;50.906;7.248;2023-03-01T02:07:28;16.73;;;6.43;;
43670;SDS011;29267;50.906;7.248;2023-03-01T02:09:55;11.30;;;5.17;;
43670;SDS011;29267;50.906;7.248;2023-03-01T02:12:23;10.57;;;5.20;;
43670;SDS011;29267;50.906;7.248;2023-03-01T02:14:49;12.87;;;5.40;;
43670;SDS011;29267;50.906;7.248;2023-03-01T02:17:15;13.33;;;5.73;;
43670;SDS011;29267;50.906;7.248;2023-03-01T02:22:33;10.47;;;5.87;;
43670;SDS011;29267;50.906;7.248;2023-03-01T02:30:22;11.47;;;5.80;;
43670;SDS011;29267;50.906;7.248;2023-03-01T02:32:49;12.90;;;5.73;;
43670;SDS011;29267;50.906;7.248;2023-03-01T02:35:16;11.33;;;5.67;;
43670;SDS011;29267;50.906;7.248;2023-03-01T02:37:44;14.50;;;5.57;;
43670;SDS011;29267;50.906;7.248;2023-03-01T02:40:11;9.70;;;5.53;;
43670;SDS011;29267;50.906;7.248;2023-03-01T02:42:52;11.97;;;5.17;;
43670;SDS011;29267;50.906;7.248;2023-03-01T02:45:20;10.33;;;5.70;;
43670;SDS011;29267;50.906;7.248;2023-03-01T02:47:46;12.33;;;6.40;;
43670;SDS011;29267;50.906;7.248;2023-03-01T02:50:57;13.80;;;5.90;;
43670;SDS011;29267;50.906;7.248;2023-03-01T02:53:16;16.27;;;5.57;;
43670;SDS011;29267;50.906;7.248;2023-03-01T02:55:45;11.97;;;5.70;;
43670;SDS011;29267;50.906;7.248;2023-03-01T02:58:10;11.90;;;6.03;;
43670;SDS011;29267;50.906;7.248;2023-03-01T03:00:37;12.30;;;5.97;;
43670;SDS011;29267;50.906;7.248;2023-03-01T03:03:10;12.63;;;5.32;;
43670;SDS011;29267;50.906;7.248;2023-03-01T03:05:38;12.17;;;5.53;;
43670;SDS011;29267;50.906;7.248;2023-03-01T03:08:03;12.27;;;5.97;;
43670;SDS011;29267;50.906;7.248;2023-03-01T03:10:33;11.67;;;6.37;;
43670;SDS011;29267;50.906;7.248;2023-03-01T03:13:12;14.23;;;6.07;;
43670;SDS011;29267;50.906;7.248;2023-03-01T03:15:39;11.70;;;5.70;;
43670;SDS011;29267;50.906;7.248;2023-03-01T03:18:07;11.53;;;5.73;;
43670;SDS011;29267;50.906;7.248;2023-03-01T03:20:35;16.27;;;6.57;;
43670;SDS011;29267;50.906;7.248;2023-03-01T03:23:03;11.77;;;6.13;;
43670;SDS011;29267;50.906;7.248;2023-03-01T03:25:28;12.77;;;5.87;;
43670;SDS011;29267;50.906;7.248;2023-03-01T03:27:55;14.30;;;6.97;;
43670;SDS011;29267;50.906;7.248;2023-03-01T03:30:22;12.77;;;6.03;;
43670;SDS011;29267;50.906;7.248;2023-03-01T03:32:52;12.47;;;6.23;;
43670;SDS011;29267;50.906;7.248;2023-03-01T03:35:19;14.60;;;6.63;;
43670;SDS011;29267;50.906;7.248;2023-03-01T03:37:46;13.73;;;6.50;;
43670;SDS011;29267;50.906;7.248;2023-03-01T03:40:28;17.07;;;6.37;;
43670;SDS011;29267;50.906;7.248;2023-03-01T03:42:59;13.07;;;6.90;;
43670;SDS011;29267;50.906;7.248;2023-03-01T03:45:25;13.77;;;6.83;;
43670;SDS011;29267;50.906;7.248;2023-03-01T03:47:51;9.50;;;5.30;;
43670;SDS011;29267;50.906;7.248;2023-03-01T03:50:16;14.77;;;6.83;;
43670;SDS011;29267;50.906;7.248;2023-03-01T03:52:42;9.47;;;5.77;;
43670;SDS011;29267;50.906;7.248;2023-03-01T03:55:09;14.60;;;6.27;;
43670;SDS011;29267;50.906;7.248;2023-03-01T03:57:37;14.93;;;7.40;;
43670;SDS011;29267;50.906;7.248;2023-03-01T04:00:03;13.37;;;6.87;;
43670;SDS011;29267;50.906;7.248;2023-03-01T04:02:38;10.97;;;5.60;;
43670;SDS011;29267;50.906;7.248;2023-03-01T04:05:04;14.03;;;7.07;;
43670;SDS011;29267;50.906;7.248;2023-03-01T04:07:30;15.93;;;7.00;;
43670;SDS011;29267;50.906;7.248;2023-03-01T04:09:56;11.40;;;6.30;;
43670;SDS011;29267;50.906;7.248;2023-03-01T04:12:22;9.53;;;5.93;;
43670;SDS011;29267;50.906;7.248;2023-03-01T04:14:48;12.70;;;7.13;;
43670;SDS011;29267;50.906;7.248;2023-03-01T04:17:13;11.77;;;6.47;;
43670;SDS011;29267;50.906;7.248;2023-03-01T04:19:39;18.27;;;7.70;;
43670;SDS011;29267;50.906;7.248;2023-03-01T04:22:04;14.63;;;7.87;;
43670;SDS011;29267;50.906;7.248;2023-03-01T04:24:34;15.17;;;7.00;;
43670;SDS011;29267;50.906;7.248;2023-03-01T04:27:00;13.67;;;6.53;;
43670;SDS011;29267;50.906;7.248;2023-03-01T04:29:26;12.13;;;6.53;;
43670;SDS011;29267;50.906;7.248;2023-03-01T04:31:52;12.97;;;6.13;;
43670;SDS011;29267;50.906;7.248;2023-03-01T04:34:18;16.33;;;7.50;;
43670;SDS011;29267;50.906;7.248;2023-03-01T04:36:43;15.47;;;7.17;;
43670;SDS011;29267;50.906;7.248;2023-03-01T04:39:09;14.50;;;6.90;;
43670;SDS011;29267;50.906;7.248;2023-03-01T04:41:37;15.00;;;6.97;;
43670;SDS011;29267;50.906;7.248;2023-03-01T04:44:04;14.93;;;7.43;;
43670;SDS011;29267;50.906;7.248;2023-03-01T04:46:30;22.27;;;8.17;;
43670;SDS011;29267;50.906;7.248;2023-03-01T04:48:56;13.83;;;6.43;;
43670;SDS011;29267;50.906;7.248;2023-03-01T04:51:22;14.33;;;7.07;;
43670;SDS011;29267;50.906;7.248;2023-03-01T04:53:47;12.70;;;6.20;;
43670;SDS011;29267;50.906;7.248;2023-03-01T04:56:13;17.13;;;6.63;;
43670;SDS011;29267;50.906;7.248;2023-03-01T04:58:39;13.67;;;7.97;;
43670;SDS011;29267;50.906;7.248;2023-03-01T05:01:12;15.80;;;6.93;;
43670;SDS011;29267;50.906;7.248;2023-03-01T05:03:48;15.03;;;6.87;;
43670;SDS011;29267;50.906;7.248;2023-03-01T05:06:16;18.27;;;6.50;;
43670;SDS011;29267;50.906;7.248;2023-03-01T05:08:43;20.67;;;8.10;;
43670;SDS011;29267;50.906;7.248;2023-03-01T05:11:09;16.00;;;7.30;;
43670;SDS011;29267;50.906;7.248;2023-03-01T05:13:36;13.57;;;6.97;;
43670;SDS011;29267;50.906;7.248;2023-03-01T05:16:03;14.07;;;7.20;;
43670;SDS011;29267;50.906;7.248;2023-03-01T05:18:31;17.30;;;7.07;;
43670;SDS011;29267;50.906;7.248;2023-03-01T05:21:02;19.07;;;7.73;;
43670;SDS011;29267;50.906;7.248;2023-03-01T05:23:40;12.83;;;7.27;;
43670;SDS011;29267;50.906;7.248;2023-03-01T05:26:06;14.40;;;7.43;;
43670;SDS011;29267;50.906;7.248;2023-03-01T05:28:32;18.80;;;8.07;;
43670;SDS011;29267;50.906;7.248;2023-03-01T05:31:00;14.33;;;6.90;;
43670;SDS011;29267;50.906;7.248;2023-03-01T05:33:26;22.20;;;8.17;;
43670;SDS011;29267;50.906;7.248;2023-03-01T05:35:52;20.13;;;6.93;;
43670;SDS011;29267;50.906;7.248;2023-03-01T05:38:19;16.33;;;7.87;;
43670;SDS011;29267;50.906;7.248;2023-03-01T05:40:46;15.87;;;8.17;;
43670;SDS011;29267;50.906;7.248;2023-03-01T05:43:13;17.77;;;7.53;;
43670;SDS011;29267;50.906;7.248;2023-03-01T05:45:40;16.77;;;8.47;;
43670;SDS011;29267;50.906;7.248;2023-03-01T05:48:07;18.30;;;8.20;;
43670;SDS011;29267;50.906;7.248;2023-03-01T05:50:35;14.67;;;8.37;;
43670;SDS011;29267;50.906;7.248;2023-03-01T05:53:17;14.87;;;7.60;;
43670;SDS011;29267;50.906;7.248;2023-03-01T05:55:46;23.90;;;8.67;;
43670;SDS011;29267;50.906;7.248;2023-03-01T05:58:13;18.17;;;8.47;;
43670;SDS011;29267;50.906;7.248;2023-03-01T06:00:40;19.30;;;8.00;;
43670;SDS011;29267;50.906;7.248;2023-03-01T06:03:09;21.23;;;8.13;;
43670;SDS011;29267;50.906;7.248;2023-03-01T06:05:35;14.47;;;7.67;;
43670;SDS011;29267;50.906;7.248;2023-03-01T06:08:01;16.43;;;7.17;;
43670;SDS011;29267;50.906;7.248;2023-03-01T06:10:27;16.03;;;7.97;;
43670;SDS011;29267;50.906;7.248;2023-03-01T06:12:53;17.53;;;8.07;;
43670;SDS011;29267;50.906;7.248;2023-03-01T06:15:19;21.67;;;8.47;;
43670;SDS011;29267;50.906;7.248;2023-03-01T06:17:45;20.77;;;8.20;;
43670;SDS011;29267;50.906;7.248;2023-03-01T06:20:18;16.23;;;8.13;;
43670;SDS011;29267;50.906;7.248;2023-03-01T06:22:45;15.93;;;8.07;;
43670;SDS011;29267;50.906;7.248;2023-03-01T06:25:12;18.60;;;8.37;;
43670;SDS011;29267;50.906;7.248;2023-03-01T06:27:40;22.13;;;8.47;;
43670;SDS011;29267;50.906;7.248;2023-03-01T06:30:06;19.63;;;8.93;;
43670;SDS011;29267;50.906;7.248;2023-03-01T06:32:33;19.10;;;8.37;;
43670;SDS011;29267;50.906;7.248;2023-03-01T06:34:58;18.23;;;8.53;;
43670;SDS011;29267;50.906;7.248;2023-03-01T06:37:24;18.13;;;8.30;;
43670;SDS011;29267;50.906;7.248;2023-03-01T06:39:50;15.80;;;7.47;;
43670;SDS011;29267;50.906;7.248;2023-03-01T06:42:16;17.37;;;8.73;;
43670;SDS011;29267;50.906;7.248;2023-03-01T06:44:41;18.03;;;7.83;;
43670;SDS011;29267;50.906;7.248;2023-03-01T06:47:07;17.50;;;8.43;;
43670;SDS011;29267;50.906;7.248;2023-03-01T06:49:32;22.60;;;9.17;;
43670;SDS011;29267;50.906;7.248;2023-03-01T06:51:58;18.13;;;7.97;;
43670;SDS011;29267;50.906;7.248;2023-03-01T06:54:24;16.30;;;7.17;;
43670;SDS011;29267;50.906;7.248;2023-03-01T06:56:49;23.83;;;8.33;;
43670;SDS011;29267;50.906;7.248;2023-03-01T06:59:16;17.97;;;9.23;;
43670;SDS011;29267;50.906;7.248;2023-03-01T07:01:42;22.20;;;8.83;;
43670;SDS011;29267;50.906;7.248;2023-03-01T07:04:08;21.77;;;8.90;;
43670;SDS011;29267;50.906;7.248;2023-03-01T07:06:34;20.53;;;8.53;;
43670;SDS011;29267;50.906;7.248;2023-03-01T07:09:00;16.13;;;8.30;;
43670;SDS011;29267;50.906;7.248;2023-03-01T07:11:26;14.07;;;7.03;;
43670;SDS011;29267;50.906;7.248;2023-03-01T07:13:51;19.03;;;8.90;;
43670;SDS011;29267;50.906;7.248;2023-03-01T07:16:17;18.03;;;9.00;;
43670;SDS011;29267;50.906;7.248;2023-03-01T07:18:43;14.17;;;7.87;;
43670;SDS011;29267;50.906;7.248;2023-03-01T07:21:11;22.20;;;8.33;;
43670;SDS011;29267;50.906;7.248;2023-03-01T07:23:38;17.07;;;8.73;;
43670;SDS011;29267;50.906;7.248;2023-03-01T07:26:04;22.17;;;7.87;;
43670;SDS011;29267;50.906;7.248;2023-03-01T07:28:30;16.10;;;7.73;;
43670;SDS011;29267;50.906;7.248;2023-03-01T07:31:00;16.87;;;7.40;;
43670;SDS011;29267;50.906;7.248;2023-03-01T07:33:29;19.58;;;8.90;;
43670;SDS011;29267;50.906;7.248;2023-03-01T07:35:55;14.87;;;7.67;;
43670;SDS011;29267;50.906;7.248;2023-03-01T07:38:22;15.67;;;7.83;;
43670;SDS011;29267;50.906;7.248;2023-03-01T07:40:48;19.50;;;8.60;;
43670;SDS011;29267;50.906;7.248;2023-03-01T07:43:14;16.00;;;7.97;;
43670;SDS011;29267;50.906;7.248;2023-03-01T07:45:39;15.50;;;8.10;;
43670;SDS011;29267;50.906;7.248;2023-03-01T07:48:05;18.00;;;8.53;;
43670;SDS011;29267;50.906;7.248;2023-03-01T07:50:30;16.47;;;8.67;;
43670;SDS011;29267;50.906;7.248;2023-03-01T07:52:56;17.47;;;8.80;;
43670;SDS011;29267;50.906;7.248;2023-03-01T07:55:21;18.90;;;8.97;;
43670;SDS011;29267;50.906;7.248;2023-03-01T07:57:47;16.57;;;7.80;;
43670;SDS011;29267;50.906;7.248;2023-03-01T08:00:13;14.43;;;8.13;;
43670;SDS011;29267;50.906;7.248;2023-03-01T08:02:39;22.23;;;9.60;;
43670;SDS011;29267;50.906;7.248;2023-03-01T08:05:06;16.50;;;8.00;;
43670;SDS011;29267;50.906;7.248;2023-03-01T08:07:33;16.53;;;8.67;;
43670;SDS011;29267;50.906;7.248;2023-03-01T08:09:59;19.40;;;8.53;;
43670;SDS011;29267;50.906;7.248;2023-03-01T08:12:25;16.40;;;8.23;;
43670;SDS011;29267;50.906;7.248;2023-03-01T08:14:52;18.57;;;8.17;;
43670;SDS011;29267;50.906;7.248;2023-03-01T08:17:18;17.40;;;9.20;;
43670;SDS011;29267;50.906;7.248;2023-03-01T08:19:44;19.40;;;8.70;;
43670;SDS011;29267;50.906;7.248;2023-03-01T08:22:10;16.80;;;8.00;;
43670;SDS011;29267;50.906;7.248;2023-03-01T08:24:36;17.37;;;9.20;;
43670;SDS011;29267;50.906;7.248;2023-03-01T08:27:01;19.23;;;9.10;;
43670;SDS011;29267;50.906;7.248;2023-03-01T08:29:28;17.03;;;8.90;;
43670;SDS011;29267;50.906;7.248;2023-03-01T08:31:55;16.73;;;8.70;;
43670;SDS011;29267;50.906;7.248;2023-03-01T08:34:21;15.13;;;8.50;;
43670;SDS011;29267;50.906;7.248;2023-03-01T08:36:47;19.73;;;9.80;;
43670;SDS011;29267;50.906;7.248;2023-03-01T08:39:13;17.43;;;8.63;;
43670;SDS011;29267;50.906;7.248;2023-03-01T08:41:40;15.10;;;7.70;;
43670;SDS011;29267;50.906;7.248;2023-03-01T08:44:07;12.93;;;7.87;;
43670;SDS011;29267;50.906;7.248;2023-03-01T08:46:37;18.93;;;8.13;;
43670;SDS011;29267;50.906;7.248;2023-03-01T08:49:09;15.82;;;7.45;;
43670;SDS011;29267;50.906;7.248;2023-03-01T08:54:06;17.67;;;8.20;;
43670;SDS011;29267;50.906;7.248;2023-03-01T08:56:35;14.97;;;7.17;;
43670;SDS011;29267;50.906;7.248;2023-03-01T08:59:02;15.83;;;7.50;;
43670;SDS011;29267;50.906;7.248;2023-03-01T09:01:27;16.77;;;8.10;;
43670;SDS011;29267;50.906;7.248;2023-03-01T09:03:53;16.57;;;7.50;;
43670;SDS011;29267;50.906;7.248;2023-03-01T09:06:18;16.23;;;7.10;;
43670;SDS011;29267;50.906;7.248;2023-03-01T09:08:45;19.40;;;7.63;;
43670;SDS011;29267;50.906;7.248;2023-03-01T09:11:13;18.02;;;7.95;;
43670;SDS011;29267;50.906;7.248;2023-03-01T09:13:41;13.30;;;6.97;;
43670;SDS011;29267;50.906;7.248;2023-03-01T09:16:08;14.50;;;7.90;;
43670;SDS011;29267;50.906;7.248;2023-03-01T09:18:35;17.00;;;7.57;;
43670;SDS011;29267;50.906;7.248;2023-03-01T09:21:07;19.25;;;7.75;;
43670;SDS011;29267;50.906;7.248;2023-03-01T09:23:39;14.93;;;7.85;;
43670;SDS011;29267;50.906;7.248;2023-03-01T09:26:06;18.95;;;7.82;;
43670;SDS011;29267;50.906;7.248;2023-03-01T09:28:34;14.48;;;7.90;;
43670;SDS011;29267;50.906;7.248;2023-03-01T09:31:00;22.55;;;7.15;;
43670;SDS011;29267;50.906;7.248;2023-03-01T09:33:27;14.88;;;7.07;;
43670;SDS011;29267;50.906;7.248;2023-03-01T09:35:57;18.60;;;8.32;;
43670;SDS011;29267;50.906;7.248;2023-03-01T09:38:24;16.52;;;8.02;;
43670;SDS011;29267;50.906;7.248;2023-03-01T09:40:50;13.98;;;6.70;;
43670;SDS011;29267;50.906;7.248;2023-03-01T09:43:19;15.50;;;7.10;;
43670;SDS011;29267;50.906;7.248;2023-03-01T09:46:05;13.20;;;7.18;;
43670;SDS011;29267;50.906;7.248;2023-03-01T09:48:37;13.10;;;6.95;;
43670;SDS011;29267;50.906;7.248;2023-03-01T09:51:10;14.75;;;6.75;;
43670;SDS011;29267;50.906;7.248;2023-03-01T09:53:41;12.73;;;7.38;;
43670;SDS011;29267;50.906;7.248;2023-03-01T09:58:51;14.40;;;6.97;;
43670;SDS011;29267;50.906;7.248;2023-03-01T10:06:57;12.82;;;6.93;;
43670;SDS011;29267;50.906;7.248;2023-03-01T10:09:36;11.10;;;6.03;;
43670;SDS011;29267;50.906;7.248;2023-03-01T10:12:25;11.85;;;6.95;;
43670;SDS011;29267;50.906;7.248;2023-03-01T10:14:59;11.38;;;6.32;;
43670;SDS011;29267;50.906;7.248;2023-03-01T10:17:37;12.00;;;6.00;;
43670;SDS011;29267;50.906;7.248;2023-03-01T10:22:42;14.38;;;6.82;;
43670;SDS011;29267;50.906;7.248;2023-03-01T10:25:12;15.02;;;6.97;;
43670;SDS011;29267;50.906;7.248;2023-03-01T10:30:20;10.20;;;5.30;;
43670;SDS011;29267;50.906;7.248;2023-03-01T10:32:51;22.33;;;6.90;;
43670;SDS011;29267;50.906;7.248;2023-03-01T10:35:20;12.65;;;6.45;;
43670;SDS011;29267;50.906;7.248;2023-03-01T10:38:04;12.88;;;6.47;;
43670;SDS011;29267;50.906;7.248;2023-03-01T10:40:32;13.38;;;7.07;;
43670;SDS011;29267;50.906;7.248;2023-03-01T10:42:59;13.15;;;6.30;;
43670;SDS011;29267;50.906;7.248;2023-03-01T10:45:35;16.17;;;5.80;;
43670;SDS011;29267;50.906;7.248;2023-03-01T10:50:43;11.57;;;6.07;;
43670;SDS011;29267;50.906;7.248;2023-03-01T10:56:14;15.23;;;5.75;;
43670;SDS011;29267;50.906;7.248;2023-03-01T10:58:56;14.13;;;5.93;;
43670;SDS011;29267;50.906;7.248;2023-03-01T11:01:34;10.40;;;6.17;;
43670;SDS011;29267;50.906;7.248;2023-03-01T11:04:10;12.25;;;6.43;;
43670;SDS011;29267;50.906;7.248;2023-03-01T11:06:38;9.25;;;5.50;;
43670;SDS011;29267;50.906;7.248;2023-03-01T11:09:18;11.05;;;5.90;;
43670;SDS011;29267;50.906;7.248;2023-03-01T11:11:51;9.77;;;5.57;;
43670;SDS011;29267;50.906;7.248;2023-03-01T11:14:20;9.90;;;6.00;;
43670;SDS011;29267;50.906;7.248;2023-03-01T11:16:48;12.35;;;6.22;;
43670;SDS011;29267;50.906;7.248;2023-03-01T11:19:23;11.88;;;6.07;;
43670;SDS011;29267;50.906;7.248;2023-03-01T11:22:04;11.40;;;6.30;;
43670;SDS011;29267;50.906;7.248;2023-03-01T11:24:40;13.27;;;6.60;;
43670;SDS011;29267;50.906;7.248;2023-03-01T11:27:25;13.32;;;6.47;;
43670;SDS011;29267;50.906;7.248;2023-03-01T11:32:28;13.02;;;5.57;;
43670;SDS011;29267;50.906;7.248;2023-03-01T11:35:04;11.13;;;6.15;;
43670;SDS011;29267;50.906;7.248;2023-03-01T11:48:53;14.18;;;6.03;;
43670;SDS011;29267;50.906;7.248;2023-03-01T11:51:38;38.65;;;15.50;;
43670;SDS011;29267;50.906;7.248;2023-03-01T11:57:04;11.95;;;5.30;;
43670;SDS011;29267;50.906;7.248;2023-03-01T12:08:08;10.70;;;5.90;;
43670;SDS011;29267;50.906;7.248;2023-03-01T12:13:40;13.85;;;6.78;;
43670;SDS011;29267;50.906;7.248;2023-03-01T12:16:40;13.63;;;7.18;;
43670;SDS011;29267;50.906;7.248;2023-03-01T12:22:20;11.27;;;6.10;;
43670;SDS011;29267;50.906;7.248;2023-03-01T12:37:03;18.30;;;6.07;;
43670;SDS011;29267;50.906;7.248;2023-03-01T12:51:24;13.05;;;5.60;;
43670;SDS011;29267;50.906;7.248;2023-03-01T12:53:53;33.05;;;11.35;;
43670;SDS011;29267;50.906;7.248;2023-03-01T12:56:27;7.90;;;4.22;;
43670;SDS011;29267;50.906;7.248;2023-03-01T13:01:59;11.80;;;4.40;;
43670;SDS011;29267;50.906;7.248;2023-03-01T13:07:44;6.50;;;3.55;;
43670;SDS011;29267;50.906;7.248;2023-03-01T13:10:26;12.23;;;4.50;;
43670;SDS011;29267;50.906;7.248;2023-03-01T13:15:29;7.72;;;4.07;;
43670;SDS011;29267;50.906;7.248;2023-03-01T13:18:00;11.18;;;5.00;;
43670;SDS011;29267;50.906;7.248;2023-03-01T13:31:03;10.90;;;4.60;;
43670;SDS011;29267;50.906;7.248;2023-03-01T13:35:58;8.07;;;4.10;;
43670;SDS011;29267;50.906;7.248;2023-03-01T13:38:37;6.57;;;3.67;;
43670;SDS011;29267;50.906;7.248;2023-03-01T13:41:08;12.77;;;4.07;;
43670;SDS011;29267;50.906;7.248;2023-03-01T13:43:35;9.23;;;4.13;;
43670;SDS011;29267;50.906;7.248;2023-03-01T13:46:14;6.13;;;3.50;;
43670;SDS011;29267;50.906;7.248;2023-03-01T13:48:45;10.43;;;3.47;;
43670;SDS011;29267;50.906;7.248;2023-03-01T13:51:15;6.30;;;3.47;;
43670;SDS011;29267;50.906;7.248;2023-03-01T13:53:45;5.32;;;2.90;;
43670;SDS011;29267;50.906;7.248;2023-03-01T13:56:16;7.55;;;3.28;;
43670;SDS011;29267;50.906;7.248;2023-03-01T13:58:48;7.30;;;3.58;;
43670;SDS011;29267;50.906;7.248;2023-03-01T14:01:24;9.25;;;3.47;;
43670;SDS011;29267;50.906;7.248;2023-03-01T14:03:52;8.15;;;3.65;;
43670;SDS011;29267;50.906;7.248;2023-03-01T14:06:25;10.10;;;4.90;;
43670;SDS011;29267;50.906;7.248;2023-03-01T14:09:08;9.23;;;4.38;;
43670;SDS011;29267;50.906;7.248;2023-03-01T14:15:01;9.30;;;5.65;;
43670;SDS011;29267;50.906;7.248;2023-03-01T14:17:49;9.18;;;4.18;;
43670;SDS011;29267;50.906;7.248;2023-03-01T14:20:27;14.63;;;4.68;;
43670;SDS011;29267;50.906;7.248;2023-03-01T14:22:57;10.98;;;4.63;;
43670;SDS011;29267;50.906;7.248;2023-03-01T14:25:33;8.63;;;4.50;;
43670;SDS011;29267;50.906;7.248;2023-03-01T14:30:43;7.50;;;3.92;;
43670;SDS011;29267;50.906;7.248;2023-03-01T14:33:24;7.10;;;4.20;;
43670;SDS011;29267;50.906;7.248;2023-03-01T14:36:05;7.30;;;3.70;;
43670;SDS011;29267;50.906;7.248;2023-03-01T14:38:36;9.25;;;4.38;;
43670;SDS011;29267;50.906;7.248;2023-03-01T14:41:14;6.72;;;3.47;;
43670;SDS011;29267;50.906;7.248;2023-03-01T14:43:43;6.05;;;3.75;;
43670;SDS011;29267;50.906;7.248;2023-03-01T14:46:19;10.93;;;4.13;;
43670;SDS011;29267;50.906;7.248;2023-03-01T14:48:49;7.30;;;3.90;;
43670;SDS011;29267;50.906;7.248;2023-03-01T14:51:20;7.25;;;3.80;;
43670;SDS011;29267;50.906;7.248;2023-03-01T14:53:47;10.70;;;3.70;;
43670;SDS011;29267;50.906;7.248;2023-03-01T14:56:13;8.82;;;3.60;;
43670;SDS011;29267;50.906;7.248;2023-03-01T14:58:42;6.13;;;3.80;;
43670;SDS011;29267;50.906;7.248;2023-03-01T15:01:13;8.98;;;3.67;;
43670;SDS011;29267;50.906;7.248;2023-03-01T15:03:42;7.75;;;4.05;;
43670;SDS011;29267;50.906;7.248;2023-03-01T15:06:10;8.35;;;4.45;;
43670;SDS011;29267;50.906;7.248;2023-03-01T15:08:39;13.00;;;4.28;;
43670;SDS011;29267;50.906;7.248;2023-03-01T15:13:39;8.65;;;4.45;;
43670;SDS011;29267;50.906;7.248;2023-03-01T15:16:12;10.32;;;4.85;;
43670;SDS011;29267;50.906;7.248;2023-03-01T15:18:49;7.93;;;4.28;;
43670;SDS011;29267;50.906;7.248;2023-03-01T15:23:53;9.52;;;4.40;;
43670;SDS011;29267;50.906;7.248;2023-03-01T15:26:28;6.95;;;3.33;;
43670;SDS011;29267;50.906;7.248;2023-03-01T15:29:03;8.88;;;4.30;;
43670;SDS011;29267;50.906;7.248;2023-03-01T15:31:32;7.93;;;3.72;;
43670;SDS011;29267;50.906;7.248;2023-03-01T15:34:10;11.25;;;3.72;;
43670;SDS011;29267;50.906;7.248;2023-03-01T15:36:47;8.23;;;3.90;;
43670;SDS011;29267;50.906;7.248;2023-03-01T15:39:50;9.00;;;3.83;;
43670;SDS011;29267;50.906;7.248;2023-03-01T15:45:07;8.45;;;3.45;;
43670;SDS011;29267;50.906;7.248;2023-03-01T15:47:49;10.07;;;3.72;;
43670;SDS011;29267;50.906;7.248;2023-03-01T15:52:47;8.32;;;4.35;;
43670;SDS011;29267;50.906;7.248;2023-03-01T15:55:17;5.43;;;3.63;;
43670;SDS011;29267;50.906;7.248;2023-03-01T15:57:45;7.68;;;3.83;;
43670;SDS011;29267;50.906;7.248;2023-03-01T16:00:11;7.70;;;3.88;;
43670;SDS011;29267;50.906;7.248;2023-03-01T16:02:38;7.88;;;2.78;;
43670;SDS011;29267;50.906;7.248;2023-03-01T16:05:05;9.05;;;4.07;;
43670;SDS011;29267;50.906;7.248;2023-03-01T16:07:40;7.10;;;3.33;;
43670;SDS011;29267;50.906;7.248;2023-03-01T16:10:05;8.80;;;4.18;;
43670;SDS011;29267;50.906;7.248;2023-03-01T16:12:31;8.93;;;4.47;;
43670;SDS011;29267;50.906;7.248;2023-03-01T16:14:56;7.60;;;4.18;;
43670;SDS011;29267;50.906;7.248;2023-03-01T16:17:22;13.57;;;4.28;;
43670;SDS011;29267;50.906;7.248;2023-03-01T16:19:48;7.00;;;3.50;;
43670;SDS011;29267;50.906;7.248;2023-03-01T16:22:13;7.93;;;3.50;;
43670;SDS011;29267;50.906;7.248;2023-03-01T16:24:39;9.10;;;3.75;;
43670;SDS011;29267;50.906;7.248;2023-03-01T16:27:06;6.30;;;2.95;;
43670;SDS011;29267;50.906;7.248;2023-03-01T16:29:32;8.65;;;3.63;;
43670;SDS011;29267;50.906;7.248;2023-03-01T16:31:59;10.13;;;4.35;;
43670;SDS011;29267;50.906;7.248;2023-03-01T16:34:26;10.30;;;4.80;;
43670;SDS011;29267;50.906;7.248;2023-03-01T16:36:51;7.95;;;4.32;;
43670;SDS011;29267;50.906;7.248;2023-03-01T16:39:17;10.07;;;4.38;;
43670;SDS011;29267;50.906;7.248;2023-03-01T16:41:42;8.63;;;3.65;;
43670;SDS011;29267;50.906;7.248;2023-03-01T16:44:08;9.32;;;3.10;;
43670;SDS011;29267;50.906;7.248;2023-03-01T16:46:34;11.18;;;4.28;;
43670;SDS011;29267;50.906;7.248;2023-03-01T16:48:59;13.02;;;4.55;;
43670;SDS011;29267;50.906;7.248;2023-03-01T16:51:25;9.43;;;4.53;;
43670;SDS011;29267;50.906;7.248;2023-03-01T16:53:51;9.60;;;4.75;;